sensor_id;sensor_type;location;lat;lon;timestamp;temperature;humidity
58951;DHT22;44730;53.158;6.398;2023-03-31T00:01:34;9.80;99.90
58951;DHT22;44730;53.158;6.398;2023-03-31T00:04:00;9.90;99.90
58951;DHT22;44730;53.158;6.398;2023-03-31T00:06:31;10.00;99.90
58951;DHT22;44730;53.158;6.398;2023-03-31T00:09:12;10.00;99.90
58951;DHT22;44730;53.158;6.398;2023-03-31T00:11:47;10.00;99.90
58951;DHT22;44730;53.158;6.398;2023-03-31T00:14:13;10.00;99.90
58951;DHT22;44730;53.158;6.398;2023-03-31T00:16:40;10.00;99.90
58951;DHT22;44730;53.158;6.398;2023-03-31T00:19:07;10.00;99.90
58951;DHT22;44730;53.158;6.398;2023-03-31T00:21:35;10.00;99.90
58951;DHT22;44730;53.158;6.398;2023-03-31T00:24:06;10.00;99.90
58951;DHT22;44730;53.158;6.398;2023-03-31T00:26:33;9.90;99.90
58951;DHT22;44730;53.158;6.398;2023-03-31T00:28:59;9.80;99.90
58951;DHT22;44730;53.158;6.398;2023-03-31T00:31:27;9.80;99.90
58951;DHT22;44730;53.158;6.398;2023-03-31T00:33:53;9.70;99.90
58951;DHT22;44730;53.158;6.398;2023-03-31T00:36:19;9.60;99.90
58951;DHT22;44730;53.158;6.398;2023-03-31T00:38:59;9.60;99.90
58951;DHT22;44730;53.158;6.398;2023-03-31T00:41:28;9.60;99.90
58951;DHT22;44730;53.158;6.398;2023-03-31T00:44:11;9.50;99.90
58951;DHT22;44730;53.158;6.398;2023-03-31T00:49:31;9.40;99.90
58951;DHT22;44730;53.158;6.398;2023-03-31T00:52:02;9.40;99.90
58951;DHT22;44730;53.158;6.398;2023-03-31T00:54:30;9.30;99.90
58951;DHT22;44730;53.158;6.398;2023-03-31T00:56:58;9.30;99.90
58951;DHT22;44730;53.158;6.398;2023-03-31T00:59:30;9.20;99.90
58951;DHT22;44730;53.158;6.398;2023-03-31T01:01:57;9.20;99.90
58951;DHT22;44730;53.158;6.398;2023-03-31T01:04:29;9.20;99.90
58951;DHT22;44730;53.158;6.398;2023-03-31T01:07:12;9.10;99.90
58951;DHT22;44730;53.158;6.398;2023-03-31T01:09:43;9.20;99.90
58951;DHT22;44730;53.158;6.398;2023-03-31T01:12:13;9.10;99.90
58951;DHT22;44730;53.158;6.398;2023-03-31T01:14:40;9.00;99.90
58951;DHT22;44730;53.158;6.398;2023-03-31T01:17:07;9.00;99.90
58951;DHT22;44730;53.158;6.398;2023-03-31T01:36:43;8.80;99.90
58951;DHT22;44730;53.158;6.398;2023-03-31T01:39:52;8.80;99.90
58951;DHT22;44730;53.158;6.398;2023-03-31T01:42:27;8.80;99.90
58951;DHT22;44730;53.158;6.398;2023-03-31T01:47:39;8.70;99.90
58951;DHT22;44730;53.158;6.398;2023-03-31T01:50:23;8.70;99.90
58951;DHT22;44730;53.158;6.398;2023-03-31T01:53:03;8.70;99.90
58951;DHT22;44730;53.158;6.398;2023-03-31T01:55:43;8.70;99.90
58951;DHT22;44730;53.158;6.398;2023-03-31T02:00:48;8.70;99.90
58951;DHT22;44730;53.158;6.398;2023-03-31T02:03:23;8.70;99.90
58951;DHT22;44730;53.158;6.398;2023-03-31T02:06:15;8.60;99.90
58951;DHT22;44730;53.158;6.398;2023-03-31T02:08:53;8.70;99.90
58951;DHT22;44730;53.158;6.398;2023-03-31T02:11:21;8.70;99.90
58951;DHT22;44730;53.158;6.398;2023-03-31T02:13:49;8.70;99.90
58951;DHT22;44730;53.158;6.398;2023-03-31T02:16:20;8.70;99.90
58951;DHT22;44730;53.158;6.398;2023-03-31T02:18:51;8.70;99.90
58951;DHT22;44730;53.158;6.398;2023-03-31T02:21:19;8.70;99.90
58951;DHT22;44730;53.158;6.398;2023-03-31T02:23:48;8.70;99.90
58951;DHT22;44730;53.158;6.398;2023-03-31T02:26:19;8.70;99.90
58951;DHT22;44730;53.158;6.398;2023-03-31T02:28:47;8.70;99.90
58951;DHT22;44730;53.158;6.398;2023-03-31T02:31:22;8.80;99.90
58951;DHT22;44730;53.158;6.398;2023-03-31T02:33:51;8.80;99.90
58951;DHT22;44730;53.158;6.398;2023-03-31T02:36:17;9.00;99.90
58951;DHT22;44730;53.158;6.398;2023-03-31T02:38:54;8.90;99.90
58951;DHT22;44730;53.158;6.398;2023-03-31T02:41:22;9.00;99.90
58951;DHT22;44730;53.158;6.398;2023-03-31T02:43:47;9.00;99.90
58951;DHT22;44730;53.158;6.398;2023-03-31T02:46:13;9.00;99.90
58951;DHT22;44730;53.158;6.398;2023-03-31T02:48:45;9.00;99.90
58951;DHT22;44730;53.158;6.398;2023-03-31T03:02:01;9.10;99.90
58951;DHT22;44730;53.158;6.398;2023-03-31T03:15:54;9.00;99.90
58951;DHT22;44730;53.158;6.398;2023-03-31T03:18:20;9.00;99.90
58951;DHT22;44730;53.158;6.398;2023-03-31T03:20:46;9.00;99.90
58951;DHT22;44730;53.158;6.398;2023-03-31T03:23:16;9.10;99.90
58951;DHT22;44730;53.158;6.398;2023-03-31T03:25:43;9.10;99.90
58951;DHT22;44730;53.158;6.398;2023-03-31T03:28:09;9.10;99.90
58951;DHT22;44730;53.158;6.398;2023-03-31T03:30:35;9.10;99.90
58951;DHT22;44730;53.158;6.398;2023-03-31T03:33:01;9.00;99.90
58951;DHT22;44730;53.158;6.398;2023-03-31T03:35:28;9.00;99.90
58951;DHT22;44730;53.158;6.398;2023-03-31T03:37:53;9.10;99.90
58951;DHT22;44730;53.158;6.398;2023-03-31T03:40:19;9.10;99.90
58951;DHT22;44730;53.158;6.398;2023-03-31T03:42:45;9.10;99.90
58951;DHT22;44730;53.158;6.398;2023-03-31T03:45:11;9.10;99.90
58951;DHT22;44730;53.158;6.398;2023-03-31T03:47:36;9.10;99.90
58951;DHT22;44730;53.158;6.398;2023-03-31T03:50:03;9.10;99.90
58951;DHT22;44730;53.158;6.398;2023-03-31T03:52:29;9.20;99.90
58951;DHT22;44730;53.158;6.398;2023-03-31T03:54:55;9.20;99.90
58951;DHT22;44730;53.158;6.398;2023-03-31T03:57:20;9.20;99.90
58951;DHT22;44730;53.158;6.398;2023-03-31T03:59:46;9.20;99.90
58951;DHT22;44730;53.158;6.398;2023-03-31T04:02:12;9.30;99.90
58951;DHT22;44730;53.158;6.398;2023-03-31T04:04:38;9.30;99.90
58951;DHT22;44730;53.158;6.398;2023-03-31T04:07:04;9.30;99.90
58951;DHT22;44730;53.158;6.398;2023-03-31T04:09:30;9.30;99.90
58951;DHT22;44730;53.158;6.398;2023-03-31T04:11:56;9.40;99.90
58951;DHT22;44730;53.158;6.398;2023-03-31T04:14:22;9.40;99.90
58951;DHT22;44730;53.158;6.398;2023-03-31T04:16:48;9.40;99.90
58951;DHT22;44730;53.158;6.398;2023-03-31T04:19:14;9.40;99.90
58951;DHT22;44730;53.158;6.398;2023-03-31T04:21:42;9.40;99.90
58951;DHT22;44730;53.158;6.398;2023-03-31T04:24:10;9.40;99.90
58951;DHT22;44730;53.158;6.398;2023-03-31T04:26:46;9.40;99.90
58951;DHT22;44730;53.158;6.398;2023-03-31T04:29:15;9.40;99.90
58951;DHT22;44730;53.158;6.398;2023-03-31T04:31:42;9.40;99.90
58951;DHT22;44730;53.158;6.398;2023-03-31T04:34:09;9.40;99.90
58951;DHT22;44730;53.158;6.398;2023-03-31T04:36:43;9.40;99.90
58951;DHT22;44730;53.158;6.398;2023-03-31T04:39:13;9.30;99.90
58951;DHT22;44730;53.158;6.398;2023-03-31T04:41:39;9.30;99.90
58951;DHT22;44730;53.158;6.398;2023-03-31T04:44:04;9.40;99.90
58951;DHT22;44730;53.158;6.398;2023-03-31T04:46:31;9.40;99.90
58951;DHT22;44730;53.158;6.398;2023-03-31T04:48:58;9.30;99.90
58951;DHT22;44730;53.158;6.398;2023-03-31T04:51:24;9.40;99.90
58951;DHT22;44730;53.158;6.398;2023-03-31T04:53:50;9.40;99.90
58951;DHT22;44730;53.158;6.398;2023-03-31T04:56:16;9.40;99.90
58951;DHT22;44730;53.158;6.398;2023-03-31T04:58:42;9.40;99.90
58951;DHT22;44730;53.158;6.398;2023-03-31T05:01:09;9.30;99.90
58951;DHT22;44730;53.158;6.398;2023-03-31T05:03:38;9.40;99.90
58951;DHT22;44730;53.158;6.398;2023-03-31T05:06:04;9.40;99.90
58951;DHT22;44730;53.158;6.398;2023-03-31T05:08:32;9.40;99.90
58951;DHT22;44730;53.158;6.398;2023-03-31T05:10:58;9.40;99.90
58951;DHT22;44730;53.158;6.398;2023-03-31T05:13:24;9.50;99.90
58951;DHT22;44730;53.158;6.398;2023-03-31T05:15:49;9.50;99.90
58951;DHT22;44730;53.158;6.398;2023-03-31T05:18:17;9.50;99.90
58951;DHT22;44730;53.158;6.398;2023-03-31T05:20:43;9.50;99.90
58951;DHT22;44730;53.158;6.398;2023-03-31T05:23:09;9.60;99.90
58951;DHT22;44730;53.158;6.398;2023-03-31T05:25:35;9.60;99.90
58951;DHT22;44730;53.158;6.398;2023-03-31T05:28:01;9.60;99.90
58951;DHT22;44730;53.158;6.398;2023-03-31T05:30:28;9.60;99.90
58951;DHT22;44730;53.158;6.398;2023-03-31T05:32:54;9.60;99.90
58951;DHT22;44730;53.158;6.398;2023-03-31T05:35:20;9.60;99.90
58951;DHT22;44730;53.158;6.398;2023-03-31T05:37:46;9.60;99.90
58951;DHT22;44730;53.158;6.398;2023-03-31T05:40:12;9.60;99.90
58951;DHT22;44730;53.158;6.398;2023-03-31T05:42:38;9.60;99.90
58951;DHT22;44730;53.158;6.398;2023-03-31T05:45:04;9.50;99.90
58951;DHT22;44730;53.158;6.398;2023-03-31T05:47:30;9.60;99.90
58951;DHT22;44730;53.158;6.398;2023-03-31T05:49:56;9.60;99.90
58951;DHT22;44730;53.158;6.398;2023-03-31T05:52:23;9.60;99.90
58951;DHT22;44730;53.158;6.398;2023-03-31T05:54:48;9.60;99.90
58951;DHT22;44730;53.158;6.398;2023-03-31T05:57:14;9.60;99.90
58951;DHT22;44730;53.158;6.398;2023-03-31T05:59:40;9.60;99.90
58951;DHT22;44730;53.158;6.398;2023-03-31T06:02:09;9.60;99.90
58951;DHT22;44730;53.158;6.398;2023-03-31T06:04:36;9.60;99.90
58951;DHT22;44730;53.158;6.398;2023-03-31T06:07:03;9.60;99.90
58951;DHT22;44730;53.158;6.398;2023-03-31T06:09:30;9.60;99.90
58951;DHT22;44730;53.158;6.398;2023-03-31T06:11:56;9.60;99.90
58951;DHT22;44730;53.158;6.398;2023-03-31T06:14:22;9.60;99.90
58951;DHT22;44730;53.158;6.398;2023-03-31T06:16:48;9.60;99.90
58951;DHT22;44730;53.158;6.398;2023-03-31T06:19:14;9.60;99.90
58951;DHT22;44730;53.158;6.398;2023-03-31T06:21:40;9.60;99.90
58951;DHT22;44730;53.158;6.398;2023-03-31T06:24:08;9.60;99.90
58951;DHT22;44730;53.158;6.398;2023-03-31T06:26:34;9.60;99.90
58951;DHT22;44730;53.158;6.398;2023-03-31T06:29:00;9.70;99.90
58951;DHT22;44730;53.158;6.398;2023-03-31T06:31:26;9.60;99.90
58951;DHT22;44730;53.158;6.398;2023-03-31T06:33:52;9.60;99.90
58951;DHT22;44730;53.158;6.398;2023-03-31T06:36:20;9.70;99.90
58951;DHT22;44730;53.158;6.398;2023-03-31T06:38:47;9.70;99.90
58951;DHT22;44730;53.158;6.398;2023-03-31T06:41:14;9.70;99.90
58951;DHT22;44730;53.158;6.398;2023-03-31T06:43:40;9.70;99.90
58951;DHT22;44730;53.158;6.398;2023-03-31T06:46:06;9.70;99.90
58951;DHT22;44730;53.158;6.398;2023-03-31T06:48:32;9.70;99.90
58951;DHT22;44730;53.158;6.398;2023-03-31T06:50:59;9.70;99.90
58951;DHT22;44730;53.158;6.398;2023-03-31T06:53:26;9.70;99.90
58951;DHT22;44730;53.158;6.398;2023-03-31T06:55:52;9.60;99.90
58951;DHT22;44730;53.158;6.398;2023-03-31T06:58:19;9.70;99.90
58951;DHT22;44730;53.158;6.398;2023-03-31T07:00:45;9.70;99.90
58951;DHT22;44730;53.158;6.398;2023-03-31T07:03:12;9.70;99.90
58951;DHT22;44730;53.158;6.398;2023-03-31T07:05:38;9.70;99.90
58951;DHT22;44730;53.158;6.398;2023-03-31T07:08:04;9.70;99.90
58951;DHT22;44730;53.158;6.398;2023-03-31T07:10:32;9.70;99.90
58951;DHT22;44730;53.158;6.398;2023-03-31T07:12:58;9.70;99.90
58951;DHT22;44730;53.158;6.398;2023-03-31T07:15:24;9.70;99.90
58951;DHT22;44730;53.158;6.398;2023-03-31T07:17:50;9.70;99.90
58951;DHT22;44730;53.158;6.398;2023-03-31T07:20:18;9.80;99.90
58951;DHT22;44730;53.158;6.398;2023-03-31T07:22:46;9.80;99.90
58951;DHT22;44730;53.158;6.398;2023-03-31T07:25:14;9.80;99.90
58951;DHT22;44730;53.158;6.398;2023-03-31T07:27:40;9.70;99.90
58951;DHT22;44730;53.158;6.398;2023-03-31T07:30:15;9.80;99.90
58951;DHT22;44730;53.158;6.398;2023-03-31T07:32:45;9.90;99.90
58951;DHT22;44730;53.158;6.398;2023-03-31T07:35:10;9.90;99.90
58951;DHT22;44730;53.158;6.398;2023-03-31T07:37:37;9.80;99.90
58951;DHT22;44730;53.158;6.398;2023-03-31T07:40:05;9.90;99.90
58951;DHT22;44730;53.158;6.398;2023-03-31T07:42:32;9.80;99.90
58951;DHT22;44730;53.158;6.398;2023-03-31T07:44:58;9.80;99.90
58951;DHT22;44730;53.158;6.398;2023-03-31T07:47:25;9.90;99.90
58951;DHT22;44730;53.158;6.398;2023-03-31T07:49:50;9.90;99.90
58951;DHT22;44730;53.158;6.398;2023-03-31T07:52:16;9.90;99.90
58951;DHT22;44730;53.158;6.398;2023-03-31T07:54:45;9.90;99.90
58951;DHT22;44730;53.158;6.398;2023-03-31T07:57:11;9.90;99.90
58951;DHT22;44730;53.158;6.398;2023-03-31T07:59:37;9.90;99.90
58951;DHT22;44730;53.158;6.398;2023-03-31T08:02:03;9.90;99.90
58951;DHT22;44730;53.158;6.398;2023-03-31T08:04:28;9.90;99.90
58951;DHT22;44730;53.158;6.398;2023-03-31T08:06:54;9.90;99.90
58951;DHT22;44730;53.158;6.398;2023-03-31T08:09:20;9.90;99.90
58951;DHT22;44730;53.158;6.398;2023-03-31T08:11:47;10.00;99.90
58951;DHT22;44730;53.158;6.398;2023-03-31T08:14:13;10.00;99.90
58951;DHT22;44730;53.158;6.398;2023-03-31T08:16:41;10.00;99.90
58951;DHT22;44730;53.158;6.398;2023-03-31T08:19:07;10.00;99.90
58951;DHT22;44730;53.158;6.398;2023-03-31T08:21:32;10.00;99.90
58951;DHT22;44730;53.158;6.398;2023-03-31T08:23:59;10.10;99.90
58951;DHT22;44730;53.158;6.398;2023-03-31T08:26:25;10.00;99.90
58951;DHT22;44730;53.158;6.398;2023-03-31T08:28:51;10.00;99.90
58951;DHT22;44730;53.158;6.398;2023-03-31T08:31:19;10.00;99.90
58951;DHT22;44730;53.158;6.398;2023-03-31T08:33:46;10.10;99.90
58951;DHT22;44730;53.158;6.398;2023-03-31T08:36:12;10.10;99.90
58951;DHT22;44730;53.158;6.398;2023-03-31T08:38:40;10.10;99.90
58951;DHT22;44730;53.158;6.398;2023-03-31T08:44:13;10.20;99.90
58951;DHT22;44730;53.158;6.398;2023-03-31T08:46:41;10.30;99.90
58951;DHT22;44730;53.158;6.398;2023-03-31T08:49:14;10.20;99.90
58951;DHT22;44730;53.158;6.398;2023-03-31T08:51:54;10.20;99.90
58951;DHT22;44730;53.158;6.398;2023-03-31T08:54:34;10.30;99.90
58951;DHT22;44730;53.158;6.398;2023-03-31T08:57:03;10.30;99.90
58951;DHT22;44730;53.158;6.398;2023-03-31T08:59:32;10.30;99.90
58951;DHT22;44730;53.158;6.398;2023-03-31T09:08:10;10.40;99.90
58951;DHT22;44730;53.158;6.398;2023-03-31T09:10:54;10.40;99.90
58951;DHT22;44730;53.158;6.398;2023-03-31T09:19:38;10.60;99.90
58951;DHT22;44730;53.158;6.398;2023-03-31T09:22:13;10.70;99.90
58951;DHT22;44730;53.158;6.398;2023-03-31T09:25:24;10.70;99.90
58951;DHT22;44730;53.158;6.398;2023-03-31T09:27:53;10.80;99.90
58951;DHT22;44730;53.158;6.398;2023-03-31T09:30:28;10.80;99.90
58951;DHT22;44730;53.158;6.398;2023-03-31T09:35:40;10.90;99.90
58951;DHT22;44730;53.158;6.398;2023-03-31T09:38:08;11.00;99.90
58951;DHT22;44730;53.158;6.398;2023-03-31T09:40:34;11.20;99.90
58951;DHT22;44730;53.158;6.398;2023-03-31T09:45:30;11.60;99.90
58951;DHT22;44730;53.158;6.398;2023-03-31T09:48:20;11.70;99.90
58951;DHT22;44730;53.158;6.398;2023-03-31T09:51:00;11.80;99.90
58951;DHT22;44730;53.158;6.398;2023-03-31T09:53:53;12.00;99.90
58951;DHT22;44730;53.158;6.398;2023-03-31T09:56:43;12.00;99.90
58951;DHT22;44730;53.158;6.398;2023-03-31T09:59:19;12.00;99.90
58951;DHT22;44730;53.158;6.398;2023-03-31T10:01:48;12.10;99.90
58951;DHT22;44730;53.158;6.398;2023-03-31T10:04:24;12.20;99.90
58951;DHT22;44730;53.158;6.398;2023-03-31T10:06:50;12.30;99.90
58951;DHT22;44730;53.158;6.398;2023-03-31T10:09:19;12.30;99.90
58951;DHT22;44730;53.158;6.398;2023-03-31T10:14:26;12.20;99.90
58951;DHT22;44730;53.158;6.398;2023-03-31T10:16:56;12.10;99.90
58951;DHT22;44730;53.158;6.398;2023-03-31T10:19:35;12.00;99.90
58951;DHT22;44730;53.158;6.398;2023-03-31T10:22:17;11.80;99.90
58951;DHT22;44730;53.158;6.398;2023-03-31T10:24:52;11.80;99.90
58951;DHT22;44730;53.158;6.398;2023-03-31T10:27:29;11.80;99.90
58951;DHT22;44730;53.158;6.398;2023-03-31T10:30:01;11.90;99.90
58951;DHT22;44730;53.158;6.398;2023-03-31T10:32:29;11.90;99.90
58951;DHT22;44730;53.158;6.398;2023-03-31T10:34:56;12.00;99.90
58951;DHT22;44730;53.158;6.398;2023-03-31T10:37:25;12.00;99.90
58951;DHT22;44730;53.158;6.398;2023-03-31T10:39:58;12.10;99.90
58951;DHT22;44730;53.158;6.398;2023-03-31T10:42:25;12.20;99.90
58951;DHT22;44730;53.158;6.398;2023-03-31T10:45:17;12.40;99.90
58951;DHT22;44730;53.158;6.398;2023-03-31T10:47:52;12.50;99.90
58951;DHT22;44730;53.158;6.398;2023-03-31T10:50:18;12.80;99.90
58951;DHT22;44730;53.158;6.398;2023-03-31T10:52:46;12.90;99.90
58951;DHT22;44730;53.158;6.398;2023-03-31T10:55:24;13.00;99.90
58951;DHT22;44730;53.158;6.398;2023-03-31T10:58:08;13.10;99.90
58951;DHT22;44730;53.158;6.398;2023-03-31T11:07:10;13.40;99.90
58951;DHT22;44730;53.158;6.398;2023-03-31T11:09:47;13.60;99.90
58951;DHT22;44730;53.158;6.398;2023-03-31T11:21:13;14.30;99.90
58951;DHT22;44730;53.158;6.398;2023-03-31T11:23:57;14.60;99.90
58951;DHT22;44730;53.158;6.398;2023-03-31T11:27:05;14.90;99.90
58951;DHT22;44730;53.158;6.398;2023-03-31T11:30:23;14.90;99.90
58951;DHT22;44730;53.158;6.398;2023-03-31T11:35:16;14.70;99.90
58951;DHT22;44730;53.158;6.398;2023-03-31T11:37:57;14.60;99.90
58951;DHT22;44730;53.158;6.398;2023-03-31T11:40:42;14.60;99.90
58951;DHT22;44730;53.158;6.398;2023-03-31T11:43:21;14.60;99.90
58951;DHT22;44730;53.158;6.398;2023-03-31T11:46:00;14.60;99.90
58951;DHT22;44730;53.158;6.398;2023-03-31T11:48:58;14.40;99.90
58951;DHT22;44730;53.158;6.398;2023-03-31T11:51:27;14.30;99.90
58951;DHT22;44730;53.158;6.398;2023-03-31T11:53:57;14.20;99.90
58951;DHT22;44730;53.158;6.398;2023-03-31T11:56:32;14.00;99.90
58951;DHT22;44730;53.158;6.398;2023-03-31T11:59:00;13.80;99.90
58951;DHT22;44730;53.158;6.398;2023-03-31T12:04:08;13.50;99.90
58951;DHT22;44730;53.158;6.398;2023-03-31T12:06:40;13.30;99.90
58951;DHT22;44730;53.158;6.398;2023-03-31T12:12:10;13.10;99.90
58951;DHT22;44730;53.158;6.398;2023-03-31T12:14:44;13.00;99.90
58951;DHT22;44730;53.158;6.398;2023-03-31T12:17:15;13.00;99.90
58951;DHT22;44730;53.158;6.398;2023-03-31T12:19:47;13.00;99.90
58951;DHT22;44730;53.158;6.398;2023-03-31T12:25:11;13.00;99.90
58951;DHT22;44730;53.158;6.398;2023-03-31T12:27:45;12.90;99.90
58951;DHT22;44730;53.158;6.398;2023-03-31T12:30:19;13.00;99.90
58951;DHT22;44730;53.158;6.398;2023-03-31T12:33:00;13.10;99.90
58951;DHT22;44730;53.158;6.398;2023-03-31T12:41:14;13.90;99.90
58951;DHT22;44730;53.158;6.398;2023-03-31T12:57:34;14.70;99.90
58951;DHT22;44730;53.158;6.398;2023-03-31T13:02:39;14.60;99.90
58951;DHT22;44730;53.158;6.398;2023-03-31T13:08:08;14.40;99.90
58951;DHT22;44730;53.158;6.398;2023-03-31T13:10:55;14.60;99.90
58951;DHT22;44730;53.158;6.398;2023-03-31T13:13:22;14.90;99.90
58951;DHT22;44730;53.158;6.398;2023-03-31T13:15:56;15.30;99.90
58951;DHT22;44730;53.158;6.398;2023-03-31T13:18:24;15.90;99.90
58951;DHT22;44730;53.158;6.398;2023-03-31T13:21:03;16.40;99.90
58951;DHT22;44730;53.158;6.398;2023-03-31T13:23:35;16.50;99.90
58951;DHT22;44730;53.158;6.398;2023-03-31T13:34:39;15.20;99.90
58951;DHT22;44730;53.158;6.398;2023-03-31T13:51:18;13.70;99.90
58951;DHT22;44730;53.158;6.398;2023-03-31T13:56:46;13.00;99.90
58951;DHT22;44730;53.158;6.398;2023-03-31T14:05:55;12.60;99.90
58951;DHT22;44730;53.158;6.398;2023-03-31T14:11:25;13.90;99.90
58951;DHT22;44730;53.158;6.398;2023-03-31T14:14:11;14.40;99.90
58951;DHT22;44730;53.158;6.398;2023-03-31T14:16:49;14.70;99.90
58951;DHT22;44730;53.158;6.398;2023-03-31T14:22:23;14.60;99.90
58951;DHT22;44730;53.158;6.398;2023-03-31T14:30:38;15.20;99.90
58951;DHT22;44730;53.158;6.398;2023-03-31T14:38:27;16.30;99.90
58951;DHT22;44730;53.158;6.398;2023-03-31T14:40:54;16.10;99.90
58951;DHT22;44730;53.158;6.398;2023-03-31T14:43:27;15.80;99.90
58951;DHT22;44730;53.158;6.398;2023-03-31T14:48:23;15.60;99.90
58951;DHT22;44730;53.158;6.398;2023-03-31T14:50:55;15.50;99.90
58951;DHT22;44730;53.158;6.398;2023-03-31T14:53:23;15.40;99.90
58951;DHT22;44730;53.158;6.398;2023-03-31T14:55:50;15.30;99.90
58951;DHT22;44730;53.158;6.398;2023-03-31T14:58:25;15.10;99.90
58951;DHT22;44730;53.158;6.398;2023-03-31T15:00:53;15.00;99.90
58951;DHT22;44730;53.158;6.398;2023-03-31T15:03:19;14.80;99.90
58951;DHT22;44730;53.158;6.398;2023-03-31T15:05:45;14.60;99.90
58951;DHT22;44730;53.158;6.398;2023-03-31T15:08:21;14.60;99.90
58951;DHT22;44730;53.158;6.398;2023-03-31T15:10:51;14.60;99.90
58951;DHT22;44730;53.158;6.398;2023-03-31T15:13:21;14.50;99.90
58951;DHT22;44730;53.158;6.398;2023-03-31T15:15:49;14.40;99.90
58951;DHT22;44730;53.158;6.398;2023-03-31T15:18:15;14.40;99.90
58951;DHT22;44730;53.158;6.398;2023-03-31T15:20:42;14.30;99.90
58951;DHT22;44730;53.158;6.398;2023-03-31T15:23:22;14.40;99.90
58951;DHT22;44730;53.158;6.398;2023-03-31T15:25:58;14.30;99.90
58951;DHT22;44730;53.158;6.398;2023-03-31T15:28:30;14.10;99.90
58951;DHT22;44730;53.158;6.398;2023-03-31T15:31:00;14.00;99.90
58951;DHT22;44730;53.158;6.398;2023-03-31T15:33:33;13.90;99.90
58951;DHT22;44730;53.158;6.398;2023-03-31T15:36:02;13.90;99.90
58951;DHT22;44730;53.158;6.398;2023-03-31T15:38:28;13.90;99.90
58951;DHT22;44730;53.158;6.398;2023-03-31T15:40:56;13.90;99.90
58951;DHT22;44730;53.158;6.398;2023-03-31T15:43:41;13.70;99.90
58951;DHT22;44730;53.158;6.398;2023-03-31T15:49:05;13.50;99.90
58951;DHT22;44730;53.158;6.398;2023-03-31T15:51:46;13.40;99.90
58951;DHT22;44730;53.158;6.398;2023-03-31T15:54:40;13.20;99.90
58951;DHT22;44730;53.158;6.398;2023-03-31T15:57:07;13.20;99.90
58951;DHT22;44730;53.158;6.398;2023-03-31T15:59:47;13.10;99.90
58951;DHT22;44730;53.158;6.398;2023-03-31T16:02:18;13.10;99.90
58951;DHT22;44730;53.158;6.398;2023-03-31T16:04:49;13.10;99.90
58951;DHT22;44730;53.158;6.398;2023-03-31T16:07:24;13.20;99.90
58951;DHT22;44730;53.158;6.398;2023-03-31T16:12:27;13.40;99.90
58951;DHT22;44730;53.158;6.398;2023-03-31T16:15:08;13.40;99.90
58951;DHT22;44730;53.158;6.398;2023-03-31T16:20:37;13.40;99.90
58951;DHT22;44730;53.158;6.398;2023-03-31T16:23:20;13.40;99.90
58951;DHT22;44730;53.158;6.398;2023-03-31T16:25:46;13.40;99.90
58951;DHT22;44730;53.158;6.398;2023-03-31T16:28:15;13.30;99.90
58951;DHT22;44730;53.158;6.398;2023-03-31T16:30:42;13.20;99.90
58951;DHT22;44730;53.158;6.398;2023-03-31T16:35:37;13.00;99.90
58951;DHT22;44730;53.158;6.398;2023-03-31T16:38:06;12.80;99.90
58951;DHT22;44730;53.158;6.398;2023-03-31T16:40:37;12.70;99.90
58951;DHT22;44730;53.158;6.398;2023-03-31T16:43:21;12.70;99.90
58951;DHT22;44730;53.158;6.398;2023-03-31T16:45:48;12.60;99.90
58951;DHT22;44730;53.158;6.398;2023-03-31T16:48:15;12.50;99.90
58951;DHT22;44730;53.158;6.398;2023-03-31T16:50:42;12.50;99.90
58951;DHT22;44730;53.158;6.398;2023-03-31T16:53:09;12.50;99.90
58951;DHT22;44730;53.158;6.398;2023-03-31T16:55:36;12.50;99.90
58951;DHT22;44730;53.158;6.398;2023-03-31T16:58:02;12.50;99.90
58951;DHT22;44730;53.158;6.398;2023-03-31T17:00:30;12.50;99.90
58951;DHT22;44730;53.158;6.398;2023-03-31T17:02:56;12.40;99.90
58951;DHT22;44730;53.158;6.398;2023-03-31T17:05:23;12.40;99.90
58951;DHT22;44730;53.158;6.398;2023-03-31T17:07:50;12.40;99.90
58951;DHT22;44730;53.158;6.398;2023-03-31T17:10:15;12.40;99.90
58951;DHT22;44730;53.158;6.398;2023-03-31T17:12:41;12.40;99.90
58951;DHT22;44730;53.158;6.398;2023-03-31T17:15:08;12.30;99.90
58951;DHT22;44730;53.158;6.398;2023-03-31T17:17:34;12.30;99.90
58951;DHT22;44730;53.158;6.398;2023-03-31T17:20:01;12.30;99.90
58951;DHT22;44730;53.158;6.398;2023-03-31T17:22:27;12.20;99.90
58951;DHT22;44730;53.158;6.398;2023-03-31T17:24:53;12.20;99.90
58951;DHT22;44730;53.158;6.398;2023-03-31T17:27:26;12.20;99.90
58951;DHT22;44730;53.158;6.398;2023-03-31T17:29:53;12.20;99.90
58951;DHT22;44730;53.158;6.398;2023-03-31T17:32:19;12.10;99.90
58951;DHT22;44730;53.158;6.398;2023-03-31T17:34:45;12.00;99.90
58951;DHT22;44730;53.158;6.398;2023-03-31T17:37:18;12.00;99.90
58951;DHT22;44730;53.158;6.398;2023-03-31T17:39:44;11.90;99.90
58951;DHT22;44730;53.158;6.398;2023-03-31T17:42:11;11.90;99.90
58951;DHT22;44730;53.158;6.398;2023-03-31T17:44:39;11.80;99.90
58951;DHT22;44730;53.158;6.398;2023-03-31T17:47:05;11.80;99.90
58951;DHT22;44730;53.158;6.398;2023-03-31T17:49:31;11.80;99.90
58951;DHT22;44730;53.158;6.398;2023-03-31T17:51:58;11.70;99.90
58951;DHT22;44730;53.158;6.398;2023-03-31T17:54:24;11.70;99.90
58951;DHT22;44730;53.158;6.398;2023-03-31T17:56:50;11.60;99.90
58951;DHT22;44730;53.158;6.398;2023-03-31T17:59:17;11.60;99.90
58951;DHT22;44730;53.158;6.398;2023-03-31T18:01:44;11.50;99.90
58951;DHT22;44730;53.158;6.398;2023-03-31T18:04:11;11.50;99.90
58951;DHT22;44730;53.158;6.398;2023-03-31T18:06:38;11.40;99.90
58951;DHT22;44730;53.158;6.398;2023-03-31T18:09:04;11.30;99.90
58951;DHT22;44730;53.158;6.398;2023-03-31T18:11:30;11.10;99.90
58951;DHT22;44730;53.158;6.398;2023-03-31T18:13:57;10.90;99.90
58951;DHT22;44730;53.158;6.398;2023-03-31T18:16:26;10.80;99.90
58951;DHT22;44730;53.158;6.398;2023-03-31T18:18:52;10.70;99.90
58951;DHT22;44730;53.158;6.398;2023-03-31T18:21:18;10.60;99.90
58951;DHT22;44730;53.158;6.398;2023-03-31T18:23:44;10.60;99.90
58951;DHT22;44730;53.158;6.398;2023-03-31T18:26:11;10.50;99.90
58951;DHT22;44730;53.158;6.398;2023-03-31T18:28:37;10.50;99.90
58951;DHT22;44730;53.158;6.398;2023-03-31T18:31:09;10.50;99.90
58951;DHT22;44730;53.158;6.398;2023-03-31T18:33:35;10.40;99.90
58951;DHT22;44730;53.158;6.398;2023-03-31T18:36:01;10.40;99.90
58951;DHT22;44730;53.158;6.398;2023-03-31T18:38:27;10.50;99.90
58951;DHT22;44730;53.158;6.398;2023-03-31T18:40:53;10.40;99.90
58951;DHT22;44730;53.158;6.398;2023-03-31T18:43:20;10.40;99.90
58951;DHT22;44730;53.158;6.398;2023-03-31T18:45:53;10.40;99.90
58951;DHT22;44730;53.158;6.398;2023-03-31T18:48:22;10.40;99.90
58951;DHT22;44730;53.158;6.398;2023-03-31T18:50:48;10.40;99.90
58951;DHT22;44730;53.158;6.398;2023-03-31T18:53:15;10.40;99.90
58951;DHT22;44730;53.158;6.398;2023-03-31T18:55:43;10.40;99.90
58951;DHT22;44730;53.158;6.398;2023-03-31T18:58:09;10.40;99.90
58951;DHT22;44730;53.158;6.398;2023-03-31T19:00:34;10.40;99.90